createdAt,value
2023-03-27T00:01:30.855Z,100689.09
2023-03-27T00:03:59.391Z,100687.19
2023-03-27T00:06:27.778Z,100686.75
2023-03-27T00:08:56.390Z,100687.00
2023-03-27T00:11:25.648Z,100690.31
2023-03-27T00:13:55.019Z,100676.38
2023-03-27T00:16:27.100Z,100676.44
2023-03-27T00:18:56.857Z,100682.31
2023-03-27T00:21:26.140Z,100693.38
2023-03-27T00:23:54.803Z,100686.34
2023-03-27T00:26:23.429Z,100684.50
2023-03-27T00:28:51.798Z,100693.06
2023-03-27T00:31:20.165Z,100691.28
2023-03-27T00:33:48.302Z,100656.22
2023-03-27T00:36:18.243Z,100696.03
2023-03-27T00:38:47.062Z,100688.16
2023-03-27T00:41:15.521Z,100692.44
2023-03-27T00:43:44.888Z,100696.78
2023-03-27T00:46:31.821Z,100685.34
2023-03-27T00:49:02.956Z,100680.91
2023-03-27T00:51:32.935Z,100694.97
2023-03-27T00:54:01.951Z,100682.66
2023-03-27T00:56:31.096Z,100683.28
2023-03-27T00:59:03.510Z,100685.97
2023-03-27T01:01:32.671Z,100686.88
2023-03-27T01:04:03.972Z,100691.25
2023-03-27T01:06:34.323Z,100690.88
2023-03-27T01:09:02.662Z,100694.50
2023-03-27T01:11:46.490Z,100697.88
2023-03-27T01:14:22.466Z,100690.53
2023-03-27T01:17:03.141Z,100678.16
2023-03-27T01:20:07.678Z,100693.34
2023-03-27T01:23:16.105Z,100687.25
2023-03-27T01:26:35.293Z,100692.06
2023-03-27T01:29:12.102Z,100690.53
2023-03-27T01:31:52.732Z,100696.56
2023-03-27T01:35:01.305Z,100693.78
2023-03-27T01:37:52.674Z,100689.78
2023-03-27T01:40:27.092Z,100687.41
2023-03-27T01:43:03.320Z,100699.38
2023-03-27T01:45:38.102Z,100691.72
2023-03-27T01:48:12.721Z,100676.28
2023-03-27T01:50:46.349Z,100685.97
2023-03-27T01:53:19.973Z,100700.28
2023-03-27T01:55:54.409Z,100695.00
2023-03-27T01:58:29.006Z,100700.19
2023-03-27T02:01:01.880Z,100682.31
2023-03-27T02:03:35.343Z,100692.84
2023-03-27T02:06:09.499Z,100697.97
2023-03-27T02:08:44.206Z,100700.44
2023-03-27T02:11:14.128Z,100702.56
2023-03-27T02:13:46.472Z,100700.09
2023-03-27T02:16:18.767Z,100702.09
2023-03-27T02:18:56.970Z,100702.25
2023-03-27T02:21:25.608Z,100702.16
2023-03-27T02:23:54.264Z,100706.28
2023-03-27T02:26:25.729Z,100704.75
2023-03-27T02:29:07.950Z,100711.69
2023-03-27T02:31:49.791Z,100667.59
2023-03-27T02:34:49.392Z,100711.56
2023-03-27T02:37:32.148Z,100721.94
2023-03-27T02:40:13.734Z,100706.34
2023-03-27T02:42:54.440Z,100721.78
2023-03-27T02:45:28.368Z,100707.78
2023-03-27T02:48:00.677Z,100722.84
2023-03-27T02:50:35.048Z,100720.19
2023-03-27T02:53:06.239Z,100729.44
2023-03-27T02:55:39.401Z,100721.13
2023-03-27T02:58:14.080Z,100729.22
2023-03-27T03:00:48.922Z,100719.53
2023-03-27T03:03:21.759Z,100729.75
2023-03-27T03:05:50.908Z,100720.97
2023-03-27T03:08:21.792Z,100734.72
2023-03-27T03:10:50.608Z,100734.56
2023-03-27T03:13:20.128Z,100736.16
2023-03-27T03:15:50.452Z,100730.81
2023-03-27T03:18:19.248Z,100743.28
2023-03-27T03:20:47.401Z,100754.84
2023-03-27T03:23:15.540Z,100752.31
2023-03-27T03:25:45.335Z,100754.22
2023-03-27T03:28:13.525Z,100752.22
2023-03-27T03:30:45.662Z,100744.53
2023-03-27T03:33:14.778Z,100743.97
2023-03-27T03:35:43.387Z,100744.03
2023-03-27T03:38:11.681Z,100749.13
2023-03-27T03:40:40.066Z,100751.53
2023-03-27T03:43:08.192Z,100749.72
2023-03-27T03:45:36.635Z,100747.28
2023-03-27T03:48:06.759Z,100765.69
2023-03-27T03:50:35.206Z,100760.41
2023-03-27T03:53:03.537Z,100765.75
2023-03-27T03:55:31.925Z,100762.06
2023-03-27T03:58:00.027Z,100774.97
2023-03-27T04:00:29.393Z,100775.09
2023-03-27T04:02:58.469Z,100779.72
2023-03-27T04:05:28.474Z,100766.34
2023-03-27T04:07:56.822Z,100774.13
2023-03-27T04:10:25.554Z,100773.13
2023-03-27T04:12:53.960Z,100753.66
2023-03-27T04:15:22.156Z,100782.25
2023-03-27T04:17:51.058Z,100779.50
2023-03-27T04:20:19.866Z,100777.84
2023-03-27T04:22:52.530Z,100781.31
2023-03-27T04:25:24.611Z,100777.97
2023-03-27T04:27:53.321Z,100783.19
2023-03-27T04:30:23.732Z,100775.41
2023-03-27T04:32:53.339Z,100769.03
2023-03-27T04:35:23.446Z,100782.44
2023-03-27T04:37:53.353Z,100793.19
2023-03-27T04:40:22.001Z,100785.72
2023-03-27T04:42:50.460Z,100787.28
2023-03-27T04:45:22.795Z,100765.19
2023-03-27T04:47:51.426Z,100783.53
2023-03-27T04:50:20.453Z,100777.13
2023-03-27T04:52:50.421Z,100759.34
2023-03-27T04:55:23.073Z,100782.16
2023-03-27T04:57:51.262Z,100785.56
2023-03-27T05:00:20.750Z,100734.78
2023-03-27T05:02:50.204Z,100777.72
2023-03-27T05:05:19.503Z,100784.97
2023-03-27T05:07:48.714Z,100781.53
2023-03-27T05:10:21.893Z,100765.25
2023-03-27T05:12:54.169Z,100774.63
2023-03-27T05:15:23.405Z,100773.13
2023-03-27T05:17:55.076Z,100778.31
2023-03-27T05:20:24.001Z,100779.47
2023-03-27T05:22:54.769Z,100781.53
2023-03-27T05:25:23.063Z,100783.09
2023-03-27T05:27:54.098Z,100740.22
2023-03-27T05:30:24.089Z,100781.91
2023-03-27T05:32:53.895Z,100788.69
2023-03-27T05:35:24.530Z,100787.38
2023-03-27T05:37:54.994Z,100786.78
2023-03-27T05:40:26.144Z,100792.94
2023-03-27T05:42:57.842Z,100796.28
2023-03-27T05:45:26.508Z,100761.25
2023-03-27T05:47:56.603Z,100795.72
2023-03-27T05:50:27.399Z,100804.81
2023-03-27T05:52:59.080Z,100801.56
2023-03-27T05:55:28.498Z,100805.25
2023-03-27T05:57:58.312Z,100806.50
2023-03-27T06:00:27.391Z,100807.56
2023-03-27T06:03:00.050Z,100814.59
2023-03-27T06:05:29.888Z,100810.72
2023-03-27T06:07:59.102Z,100821.38
2023-03-27T06:10:29.254Z,100818.75
2023-03-27T06:13:03.040Z,100820.47
2023-03-27T06:15:32.176Z,100827.59
2023-03-27T06:18:00.402Z,100818.41
2023-03-27T06:20:28.881Z,100799.25
2023-03-27T06:23:00.174Z,100827.91
2023-03-27T06:25:32.138Z,100838.78
2023-03-27T06:28:05.077Z,100848.44
2023-03-27T06:30:33.244Z,100842.59
2023-03-27T06:33:03.052Z,100854.41
2023-03-27T06:35:33.780Z,100856.00
2023-03-27T06:38:03.307Z,100847.72
2023-03-27T06:40:35.234Z,100849.19
2023-03-27T06:43:07.232Z,100851.41
2023-03-27T06:45:37.863Z,100860.03
2023-03-27T06:48:17.764Z,100866.16
2023-03-27T06:50:50.260Z,100865.56
2023-03-27T06:55:51.592Z,100866.84
2023-03-27T06:58:22.012Z,100870.63
2023-03-27T07:00:51.392Z,100866.34
2023-03-27T07:03:22.094Z,100872.22
2023-03-27T07:05:50.729Z,100867.03
2023-03-27T07:08:24.907Z,100873.84
2023-03-27T07:13:27.475Z,100871.56
2023-03-27T07:15:56.789Z,100861.44
2023-03-27T07:18:24.939Z,100865.94
2023-03-27T07:20:53.094Z,100870.88
2023-03-27T07:23:21.552Z,100864.81
2023-03-27T07:25:50.347Z,100863.69
2023-03-27T07:28:19.899Z,100864.25
2023-03-27T07:30:50.072Z,100872.53
2023-03-27T07:33:18.316Z,100815.88
2023-03-27T07:35:48.649Z,100873.94
2023-03-27T07:38:18.542Z,100869.72
2023-03-27T07:40:47.474Z,100871.78
2023-03-27T07:43:15.821Z,100876.19
2023-03-27T07:45:45.408Z,100829.13
2023-03-27T07:48:17.020Z,100880.66
2023-03-27T07:50:46.541Z,100868.22
2023-03-27T07:53:32.928Z,100859.97
2023-03-27T07:56:03.851Z,100868.28
2023-03-27T07:58:32.133Z,100870.06
2023-03-27T08:01:02.692Z,100873.91
2023-03-27T08:03:33.842Z,100863.41
2023-03-27T08:06:02.331Z,100859.75
2023-03-27T08:08:31.143Z,100865.75
2023-03-27T08:11:00.535Z,100866.56
2023-03-27T08:13:29.047Z,100870.16
2023-03-27T08:16:04.481Z,100846.31
2023-03-27T08:18:34.904Z,100876.66
2023-03-27T08:21:04.512Z,100872.84
2023-03-27T08:23:34.000Z,100883.50
2023-03-27T08:26:03.748Z,100878.16
2023-03-27T08:28:33.386Z,100870.28
2023-03-27T08:31:03.680Z,100869.31
2023-03-27T08:33:33.898Z,100869.25
2023-03-27T08:36:02.134Z,100869.09
2023-03-27T08:38:33.429Z,100868.25
2023-03-27T08:41:04.088Z,100873.31
2023-03-27T08:43:39.103Z,100862.09
2023-03-27T08:46:10.905Z,100871.78
2023-03-27T08:48:47.833Z,100866.44
2023-03-27T08:51:20.006Z,100863.53
2023-03-27T08:53:58.935Z,100861.28
2023-03-27T08:56:28.225Z,100855.34
2023-03-27T08:58:57.204Z,100838.16
2023-03-27T09:01:31.320Z,100857.25
2023-03-27T09:04:07.449Z,100850.00
2023-03-27T09:06:40.042Z,100861.31
2023-03-27T09:09:17.159Z,100866.31
2023-03-27T09:12:00.555Z,100851.63
2023-03-27T09:14:32.932Z,100856.78
2023-03-27T09:17:07.483Z,100870.44
2023-03-27T09:19:45.736Z,100867.88
2023-03-27T09:22:18.838Z,100849.31
2023-03-27T09:24:50.379Z,100873.03
2023-03-27T09:27:23.394Z,100872.22
2023-03-27T09:30:05.363Z,100879.09
2023-03-27T09:32:35.125Z,100872.66
2023-03-27T09:35:05.140Z,100865.81
2023-03-27T09:37:35.145Z,100859.28
2023-03-27T09:40:13.084Z,100867.94
2023-03-27T09:42:43.492Z,100869.38
2023-03-27T09:45:14.490Z,100872.56
2023-03-27T09:47:52.191Z,100865.47
2023-03-27T09:50:27.893Z,100872.16
2023-03-27T09:53:08.755Z,100884.34
2023-03-27T09:55:50.901Z,100868.44
2023-03-27T09:58:29.150Z,100863.16
2023-03-27T10:01:10.918Z,100860.38
2023-03-27T10:03:40.924Z,100871.66
2023-03-27T10:06:15.044Z,100877.13
2023-03-27T10:08:46.544Z,100876.00
2023-03-27T10:11:19.927Z,100879.47
2023-03-27T10:13:50.025Z,100880.94
2023-03-27T10:16:20.317Z,100883.56
2023-03-27T10:18:50.805Z,100880.88
2023-03-27T10:21:27.932Z,100881.75
2023-03-27T10:24:02.960Z,100860.84
2023-03-27T10:26:38.482Z,100878.59
2023-03-27T10:29:23.110Z,100873.53
2023-03-27T10:31:55.807Z,100873.16
2023-03-27T10:34:36.768Z,100875.44
2023-03-27T10:37:21.763Z,100866.69
2023-03-27T10:39:51.311Z,100867.47
2023-03-27T10:42:20.350Z,100859.56
2023-03-27T10:44:49.410Z,100864.78
2023-03-27T10:47:20.807Z,100863.22
2023-03-27T10:49:57.352Z,100859.75
2023-03-27T10:52:35.599Z,100862.53
2023-03-27T10:55:22.283Z,100853.59
2023-03-27T10:57:55.020Z,100861.44
2023-03-27T11:00:34.897Z,100865.78
2023-03-27T11:03:10.100Z,100859.84
2023-03-27T11:05:41.835Z,100871.94
2023-03-27T11:08:17.426Z,100872.75
2023-03-27T11:10:47.067Z,100866.69
2023-03-27T11:13:19.560Z,100838.75
2023-03-27T11:15:54.261Z,100877.44
2023-03-27T11:18:30.313Z,100875.25
2023-03-27T11:21:02.865Z,100882.25
2023-03-27T11:23:37.530Z,100838.75
2023-03-27T11:26:09.006Z,100847.16
2023-03-27T11:28:43.616Z,100877.25
2023-03-27T11:31:24.780Z,100882.00
2023-03-27T11:33:56.593Z,100881.91
2023-03-27T11:36:41.135Z,100890.25
2023-03-27T11:39:21.081Z,100843.69
2023-03-27T11:41:53.787Z,100876.19
2023-03-27T11:44:22.472Z,100880.72
2023-03-27T11:47:14.099Z,100892.75
2023-03-27T11:50:01.470Z,100884.28
2023-03-27T11:52:42.266Z,100889.75
2023-03-27T11:55:21.975Z,100905.28
2023-03-27T11:58:08.203Z,100886.63
2023-03-27T12:00:42.717Z,100894.22
2023-03-27T12:03:24.376Z,100894.19
2023-03-27T12:06:09.414Z,100888.94
2023-03-27T12:08:53.909Z,100906.66
2023-03-27T12:11:29.106Z,100908.63
2023-03-27T12:14:40.492Z,100887.50
2023-03-27T12:17:36.481Z,100905.22
2023-03-27T12:20:41.615Z,100899.75
2023-03-27T12:23:34.029Z,100901.88
2023-03-27T12:26:27.320Z,100897.03
2023-03-27T12:29:23.490Z,100892.69
2023-03-27T12:32:09.553Z,100901.50
2023-03-27T12:34:53.220Z,100910.69
2023-03-27T12:37:25.688Z,100901.91
2023-03-27T12:39:59.114Z,100890.75
2023-03-27T12:42:51.979Z,100909.22
2023-03-27T12:45:23.959Z,100896.69
2023-03-27T12:48:19.318Z,100907.19
2023-03-27T12:50:56.600Z,100903.56
2023-03-27T12:53:55.601Z,100903.84
2023-03-27T12:56:39.157Z,100910.84
2023-03-27T12:59:24.111Z,100907.25
2023-03-27T13:02:35.535Z,100909.91
2023-03-27T13:05:31.856Z,100898.25
2023-03-27T13:08:24.057Z,100909.03
2023-03-27T13:10:59.789Z,100902.28
2023-03-27T13:14:07.838Z,100921.25
2023-03-27T13:16:57.343Z,100910.69
2023-03-27T13:19:42.852Z,100917.75
2023-03-27T13:22:36.574Z,100917.38
2023-03-27T13:25:30.827Z,100914.38
2023-03-27T13:28:34.573Z,100917.84
2023-03-27T13:31:04.867Z,100919.59
2023-03-27T13:33:46.693Z,100912.72
2023-03-27T13:36:20.328Z,100908.94
2023-03-27T13:39:06.370Z,100900.88
2023-03-27T13:41:52.589Z,100917.66
2023-03-27T13:44:28.176Z,100924.84
2023-03-27T13:47:01.234Z,100907.38
2023-03-27T13:49:45.979Z,100915.22
2023-03-27T13:52:33.214Z,100912.44
2023-03-27T13:55:30.351Z,100913.00
2023-03-27T13:58:14.846Z,100924.41
2023-03-27T14:01:09.819Z,100920.81
2023-03-27T14:04:06.929Z,100929.66
2023-03-27T14:07:04.331Z,100935.56
2023-03-27T14:09:52.102Z,100932.66
2023-03-27T14:12:26.762Z,100928.38
2023-03-27T14:15:21.073Z,100941.22
2023-03-27T14:18:25.996Z,100940.84
2023-03-27T14:20:57.027Z,100942.59
2023-03-27T14:23:29.621Z,100943.66
2023-03-27T14:26:03.870Z,100949.09
2023-03-27T14:28:34.985Z,100950.13
2023-03-27T14:31:08.645Z,100949.22
2023-03-27T14:33:39.280Z,100947.50
2023-03-27T14:36:08.363Z,100961.31
2023-03-27T14:38:38.448Z,100942.19
2023-03-27T14:41:18.575Z,100969.44
2023-03-27T14:43:50.510Z,100967.03
2023-03-27T14:46:20.662Z,100975.66
2023-03-27T14:48:53.725Z,100972.16
2023-03-27T14:51:33.938Z,100968.56
2023-03-27T14:54:07.162Z,100979.00
2023-03-27T14:56:41.667Z,100974.13
2023-03-27T14:59:15.851Z,100980.31
2023-03-27T15:01:45.034Z,100982.91
2023-03-27T15:04:15.253Z,100988.44
2023-03-27T15:06:43.622Z,100992.56
2023-03-27T15:09:15.762Z,100996.66
2023-03-27T15:11:50.121Z,100987.69
2023-03-27T15:14:21.050Z,100997.53
2023-03-27T15:16:55.535Z,100990.72
2023-03-27T15:19:28.275Z,100994.25
2023-03-27T15:22:01.580Z,101009.78
2023-03-27T15:24:38.865Z,101014.63
2023-03-27T15:27:17.515Z,101013.91
2023-03-27T15:29:51.088Z,101001.88
2023-03-27T15:32:22.403Z,101012.59
2023-03-27T15:34:56.949Z,101008.84
2023-03-27T15:37:28.913Z,101020.25
2023-03-27T15:40:06.413Z,101020.94
2023-03-27T15:42:47.768Z,101024.97
2023-03-27T15:45:17.983Z,101050.59
2023-03-27T15:48:01.312Z,101044.59
2023-03-27T15:50:30.140Z,101061.38
2023-03-27T15:53:01.680Z,101064.78
2023-03-27T15:55:40.765Z,101092.13
2023-03-27T15:58:21.275Z,101070.81
2023-03-27T16:00:52.225Z,101086.38
2023-03-27T16:03:23.670Z,101085.06
2023-03-27T16:05:53.809Z,101092.34
2023-03-27T16:08:34.313Z,101045.72
2023-03-27T16:11:04.460Z,101095.28
2023-03-27T16:13:43.345Z,101103.00
2023-03-27T16:16:23.764Z,101101.97
2023-03-27T16:18:53.624Z,101101.69
2023-03-27T16:21:24.598Z,101105.88
2023-03-27T16:23:53.206Z,101102.38
2023-03-27T16:26:26.391Z,101113.69
2023-03-27T16:28:59.786Z,101112.69
2023-03-27T16:31:28.574Z,101130.53
2023-03-27T16:33:58.411Z,101134.28
2023-03-27T16:36:34.226Z,101137.81
2023-03-27T16:39:04.312Z,101129.44
2023-03-27T16:41:33.053Z,101141.53
2023-03-27T16:44:05.420Z,101136.28
2023-03-27T16:46:34.086Z,101134.41
2023-03-27T16:49:02.370Z,101133.59
2023-03-27T16:51:31.689Z,101125.84
2023-03-27T16:54:00.105Z,101142.75
2023-03-27T16:56:28.372Z,101136.81
2023-03-27T16:58:56.754Z,101150.25
2023-03-27T17:01:26.914Z,101142.31
2023-03-27T17:03:55.697Z,101150.06
2023-03-27T17:06:23.998Z,101150.97
2023-03-27T17:08:55.962Z,101158.06
2023-03-27T17:11:24.945Z,101163.19
2023-03-27T17:13:54.008Z,101149.56
2023-03-27T17:16:24.694Z,101165.91
2023-03-27T17:18:57.416Z,101175.47
2023-03-27T17:21:27.170Z,101174.81
2023-03-27T17:23:55.965Z,101160.56
2023-03-27T17:26:27.232Z,101169.91
2023-03-27T17:28:56.772Z,101189.91
2023-03-27T17:31:27.717Z,101195.41
2023-03-27T17:33:58.864Z,101206.38
2023-03-27T17:36:40.223Z,101181.66
2023-03-27T17:39:22.729Z,101207.84
2023-03-27T17:41:50.973Z,101190.19
2023-03-27T17:44:20.740Z,101219.97
2023-03-27T17:46:49.092Z,101224.19
2023-03-27T17:49:19.388Z,101231.81
2023-03-27T17:51:47.630Z,101216.69
2023-03-27T17:54:17.892Z,101238.56
2023-03-27T17:56:53.036Z,101242.00
2023-03-27T17:59:23.389Z,101246.50
2023-03-27T18:01:51.696Z,101249.00
2023-03-27T18:04:33.392Z,101247.09
2023-03-27T18:07:05.548Z,101252.06
2023-03-27T18:09:35.150Z,101259.13
2023-03-27T18:12:03.433Z,101254.22
2023-03-27T18:14:31.664Z,101244.41
2023-03-27T18:17:06.139Z,101232.28
2023-03-27T18:19:36.122Z,101250.09
2023-03-27T18:22:08.020Z,101246.28
2023-03-27T18:24:36.183Z,101255.03
2023-03-27T18:27:06.140Z,101263.16
2023-03-27T18:29:35.225Z,101249.09
2023-03-27T18:32:04.916Z,101273.59
2023-03-27T18:34:40.415Z,101211.72
2023-03-27T18:37:09.176Z,101272.59
2023-03-27T18:39:37.996Z,101273.25
2023-03-27T18:42:09.105Z,101278.63
2023-03-27T18:44:39.403Z,101272.41
2023-03-27T18:47:11.207Z,101280.63
2023-03-27T18:49:47.437Z,101267.16
2023-03-27T18:52:15.952Z,101272.69
2023-03-27T18:54:44.542Z,101288.41
2023-03-27T18:57:13.004Z,101295.00
2023-03-27T18:59:41.656Z,101293.88
2023-03-27T19:02:11.696Z,101299.06
2023-03-27T19:04:43.374Z,101300.88
2023-03-27T19:07:13.036Z,101302.38
2023-03-27T19:09:44.896Z,101298.94
2023-03-27T19:12:14.163Z,101305.91
2023-03-27T19:14:42.538Z,101314.66
2023-03-27T19:17:18.447Z,101277.50
2023-03-27T19:19:53.461Z,101323.31
2023-03-27T19:22:26.314Z,101328.47
2023-03-27T19:25:02.412Z,101315.91
2023-03-27T19:27:39.020Z,101321.56
2023-03-27T19:30:09.697Z,101321.41
2023-03-27T19:32:38.308Z,101337.09
2023-03-27T19:35:10.292Z,101327.34
2023-03-27T19:37:43.013Z,101338.88
2023-03-27T19:40:13.532Z,101344.09
2023-03-27T19:42:41.854Z,101347.72
2023-03-27T19:45:14.495Z,101350.34
2023-03-27T19:47:43.134Z,101358.97
2023-03-27T19:50:14.615Z,101359.59
2023-03-27T19:52:49.439Z,101357.63
2023-03-27T19:55:25.768Z,101368.75
2023-03-27T19:57:55.096Z,101368.72
2023-03-27T20:00:23.793Z,101368.84
2023-03-27T20:02:52.834Z,101334.88
2023-03-27T20:05:22.845Z,101373.63
2023-03-27T20:07:51.650Z,101376.22
2023-03-27T20:10:21.500Z,101368.59
2023-03-27T20:12:50.031Z,101373.72
2023-03-27T20:15:18.311Z,101376.56
2023-03-27T20:17:46.512Z,101377.47
2023-03-27T20:20:15.474Z,101373.72
2023-03-27T20:22:56.988Z,101383.22
2023-03-27T20:25:28.464Z,101387.53
2023-03-27T20:27:57.205Z,101389.91
2023-03-27T20:30:27.856Z,101384.84
2023-03-27T20:32:58.605Z,101385.75
2023-03-27T20:35:29.258Z,101387.09
2023-03-27T20:38:04.904Z,101390.28
2023-03-27T20:40:52.796Z,101401.25
2023-03-27T20:43:23.001Z,101406.09
2023-03-27T20:45:53.118Z,101414.88
2023-03-27T20:48:21.945Z,101426.94
2023-03-27T20:50:52.001Z,101433.41
2023-03-27T20:53:26.059Z,101433.28
2023-03-27T20:56:01.349Z,101450.72
2023-03-27T20:58:30.438Z,101461.06
2023-03-27T21:01:03.862Z,101460.13
2023-03-27T21:03:34.980Z,101464.13
2023-03-27T21:06:06.526Z,101467.94
2023-03-27T21:08:36.269Z,101477.16
2023-03-27T21:11:06.084Z,101472.84
2023-03-27T21:13:34.506Z,101483.84
2023-03-27T21:16:03.051Z,101481.25
2023-03-27T21:18:31.509Z,101486.25
2023-03-27T21:20:59.894Z,101489.50
2023-03-27T21:23:31.724Z,101500.56
2023-03-27T21:26:01.837Z,101499.03
2023-03-27T21:28:30.531Z,101510.78
2023-03-27T21:30:59.552Z,101513.97
2023-03-27T21:33:31.396Z,101518.94
2023-03-27T21:36:02.336Z,101521.16
2023-03-27T21:38:31.063Z,101510.44
2023-03-27T21:41:03.286Z,101526.13
2023-03-27T21:43:32.408Z,101510.44
2023-03-27T21:46:02.139Z,101530.19
2023-03-27T21:48:31.072Z,101537.16
2023-03-27T21:51:02.960Z,101543.28
2023-03-27T21:53:31.357Z,101545.06
2023-03-27T21:56:01.088Z,101551.00
2023-03-27T21:58:29.511Z,101548.41
2023-03-27T22:00:58.895Z,101546.28
2023-03-27T22:03:28.161Z,101556.69
2023-03-27T22:06:10.104Z,101560.22
2023-03-27T22:08:39.813Z,101565.53
2023-03-27T22:11:09.710Z,101566.47
2023-03-27T22:13:38.413Z,101575.69
2023-03-27T22:16:09.790Z,101573.81
2023-03-27T22:18:38.091Z,101572.63
2023-03-27T22:21:17.644Z,101572.38
2023-03-27T22:23:46.376Z,101582.31
2023-03-27T22:26:16.209Z,101577.09
2023-03-27T22:28:45.234Z,101578.00
2023-03-27T22:31:16.243Z,101575.09
2023-03-27T22:33:44.543Z,101575.69
2023-03-27T22:36:13.648Z,101578.63
2023-03-27T22:38:42.145Z,101589.16
2023-03-27T22:41:12.473Z,101592.69
2023-03-27T22:43:42.435Z,101596.25
2023-03-27T22:46:12.611Z,101592.81
2023-03-27T22:48:41.126Z,101595.25
2023-03-27T22:51:10.734Z,101603.22
2023-03-27T22:53:39.335Z,101603.09
2023-03-27T22:56:09.104Z,101604.13
2023-03-27T22:58:37.747Z,101613.75
2023-03-27T23:01:08.458Z,101618.31
2023-03-27T23:03:37.417Z,101625.56
2023-03-27T23:06:06.509Z,101626.50
2023-03-27T23:08:35.195Z,101623.81
2023-03-27T23:11:05.218Z,101618.59
2023-03-27T23:13:35.135Z,101634.44
2023-03-27T23:16:03.475Z,101630.00
2023-03-27T23:18:33.133Z,101642.81
2023-03-27T23:21:03.735Z,101638.44
2023-03-27T23:23:33.536Z,101637.50
2023-03-27T23:26:02.986Z,101643.44
2023-03-27T23:28:33.328Z,101642.81
2023-03-27T23:31:03.182Z,101640.97
2023-03-27T23:33:36.088Z,101648.25
2023-03-27T23:36:07.301Z,101650.75
2023-03-27T23:38:36.089Z,101657.53
2023-03-27T23:41:05.222Z,101661.09
2023-03-27T23:43:34.585Z,101653.75
2023-03-27T23:46:04.187Z,101665.53
2023-03-27T23:48:34.376Z,101666.56
2023-03-27T23:51:02.493Z,101667.91
2023-03-27T23:53:31.528Z,101676.19
2023-03-27T23:56:01.467Z,101685.16
2023-03-27T23:58:32.647Z,101678.59
